createdAt,value
2022-12-31T00:01:51.615Z,46.20
2022-12-31T00:04:22.514Z,47.10
2022-12-31T00:06:53.196Z,49.30
2022-12-31T00:09:26.433Z,48.50
2022-12-31T00:11:56.904Z,47.50
2022-12-31T00:14:27.894Z,48.30
2022-12-31T00:16:58.396Z,47.10
2022-12-31T00:19:29.462Z,46.20
2022-12-31T00:22:00.140Z,45.00
2022-12-31T00:24:32.171Z,46.30
2022-12-31T00:27:03.613Z,50.20
2022-12-31T00:29:34.359Z,50.90
2022-12-31T00:32:04.869Z,48.60
2022-12-31T00:34:35.709Z,44.10
2022-12-31T00:37:06.429Z,45.70
2022-12-31T00:39:37.380Z,47.40
2022-12-31T00:42:07.912Z,45.00
2022-12-31T00:44:38.746Z,43.90
2022-12-31T00:47:09.291Z,48.00
2022-12-31T00:49:40.215Z,49.10
2022-12-31T00:52:13.900Z,46.60
2022-12-31T00:54:44.641Z,47.90
2022-12-31T00:57:15.481Z,45.10
2022-12-31T00:59:46.530Z,45.40
2022-12-31T01:02:17.154Z,42.80
2022-12-31T01:04:48.289Z,46.70
2022-12-31T01:07:19.464Z,45.70
2022-12-31T01:09:50.275Z,48.20
2022-12-31T01:12:21.113Z,45.90
2022-12-31T01:14:52.046Z,48.10
2022-12-31T01:17:22.644Z,46.20
2022-12-31T01:19:53.509Z,43.50
2022-12-31T01:22:23.974Z,43.30
2022-12-31T01:24:54.869Z,49.70
2022-12-31T01:27:25.570Z,49.50
2022-12-31T01:29:56.967Z,44.40
2022-12-31T01:32:27.700Z,42.70
2022-12-31T01:34:59.036Z,45.20
2022-12-31T01:37:29.664Z,44.10
2022-12-31T01:40:00.517Z,46.10
2022-12-31T01:42:31.239Z,43.40
2022-12-31T01:45:02.270Z,49.50
2022-12-31T01:47:38.333Z,49.60
2022-12-31T01:50:14.680Z,45.20
2022-12-31T01:52:47.481Z,42.90
2022-12-31T01:55:20.416Z,44.50
2022-12-31T01:57:54.316Z,42.10
2022-12-31T02:00:25.177Z,40.90
2022-12-31T02:02:56.394Z,45.60
2022-12-31T02:05:28.577Z,46.10
2022-12-31T02:08:00.490Z,43.50
2022-12-31T02:10:31.207Z,42.90
2022-12-31T02:13:01.954Z,41.60
2022-12-31T02:15:38.608Z,42.20
2022-12-31T02:18:14.546Z,47.30
2022-12-31T02:20:55.541Z,45.90
2022-12-31T02:23:40.485Z,44.40
2022-12-31T02:26:23.944Z,41.90
2022-12-31T02:29:08.516Z,40.90
2022-12-31T02:31:41.552Z,42.20
2022-12-31T02:34:14.885Z,41.00
2022-12-31T02:36:47.763Z,41.20
2022-12-31T02:39:18.678Z,42.60
2022-12-31T02:41:53.994Z,41.20
2022-12-31T02:44:26.153Z,41.00
2022-12-31T02:47:01.301Z,38.80
2022-12-31T02:49:35.068Z,40.70
2022-12-31T02:52:08.764Z,40.30
2022-12-31T02:54:45.428Z,42.90
2022-12-31T02:57:20.644Z,42.20
2022-12-31T03:00:10.452Z,42.20
2022-12-31T03:02:43.389Z,40.90
2022-12-31T03:05:15.103Z,42.90
2022-12-31T03:07:46.550Z,45.50
2022-12-31T03:10:17.269Z,45.20
2022-12-31T03:12:48.805Z,44.30
2022-12-31T03:15:23.866Z,46.10
2022-12-31T03:17:59.436Z,43.30
2022-12-31T03:20:49.280Z,44.60
2022-12-31T03:23:21.955Z,46.30
2022-12-31T03:25:53.505Z,47.00
2022-12-31T03:28:27.516Z,44.20
2022-12-31T03:30:59.043Z,47.50
2022-12-31T03:33:33.705Z,48.40
2022-12-31T03:36:06.227Z,51.20
2022-12-31T03:38:37.274Z,46.10
2022-12-31T03:41:10.519Z,51.70
2022-12-31T03:43:41.645Z,49.20
2022-12-31T03:46:12.685Z,49.10
2022-12-31T03:48:43.730Z,51.30
2022-12-31T03:51:14.261Z,51.10
2022-12-31T03:53:45.127Z,49.40
2022-12-31T03:56:15.933Z,52.00
2022-12-31T03:58:47.114Z,55.10
2022-12-31T04:01:18.041Z,50.90
2022-12-31T04:03:49.192Z,51.70
2022-12-31T04:06:19.677Z,50.00
2022-12-31T04:08:50.619Z,51.10
2022-12-31T04:11:21.366Z,50.30
2022-12-31T04:13:52.389Z,49.20
2022-12-31T04:16:23.061Z,50.50
2022-12-31T04:18:54.064Z,49.40
2022-12-31T04:21:26.855Z,47.90
2022-12-31T04:24:01.868Z,51.30
2022-12-31T04:26:32.505Z,48.50
2022-12-31T04:29:03.239Z,46.60
2022-12-31T04:31:34.768Z,46.00
2022-12-31T04:34:05.660Z,45.00
2022-12-31T04:36:36.563Z,43.20
2022-12-31T04:39:07.318Z,46.50
2022-12-31T04:41:37.932Z,50.10
2022-12-31T04:44:08.825Z,52.30
2022-12-31T04:46:39.395Z,56.40
2022-12-31T04:49:10.389Z,49.20
2022-12-31T04:51:41.184Z,53.60
2022-12-31T04:54:12.031Z,50.30
2022-12-31T04:56:42.529Z,50.20
2022-12-31T04:59:13.468Z,49.20
2022-12-31T05:01:44.119Z,51.10
2022-12-31T05:04:15.409Z,49.60
2022-12-31T05:06:45.883Z,51.30
2022-12-31T05:09:16.713Z,48.40
2022-12-31T05:11:47.339Z,53.60
2022-12-31T05:14:20.538Z,52.20
2022-12-31T05:16:51.430Z,51.90
2022-12-31T05:19:22.507Z,50.60
2022-12-31T05:22:06.856Z,53.60
2022-12-31T05:24:37.710Z,53.20
2022-12-31T05:27:08.191Z,54.80
2022-12-31T05:29:38.945Z,51.30
2022-12-31T05:32:09.588Z,52.80
2022-12-31T05:34:40.544Z,50.30
2022-12-31T05:37:12.291Z,53.50
2022-12-31T05:39:43.229Z,46.90
2022-12-31T05:42:13.861Z,51.60
2022-12-31T05:44:44.629Z,53.70
2022-12-31T05:47:15.223Z,52.40
2022-12-31T05:49:46.165Z,48.80
2022-12-31T05:52:18.024Z,53.40
2022-12-31T05:54:48.952Z,48.90
2022-12-31T05:57:19.585Z,50.50
2022-12-31T05:59:50.559Z,52.00
2022-12-31T06:02:21.395Z,48.80
2022-12-31T06:04:52.772Z,55.70
2022-12-31T06:07:23.331Z,54.10
2022-12-31T06:09:54.380Z,54.20
2022-12-31T06:12:25.411Z,50.70
2022-12-31T06:14:56.767Z,51.70
2022-12-31T06:17:27.516Z,52.50
2022-12-31T06:19:58.329Z,51.50
2022-12-31T06:22:29.454Z,53.10
2022-12-31T06:25:00.343Z,54.30
2022-12-31T06:27:30.949Z,51.00
2022-12-31T06:30:02.802Z,51.40
2022-12-31T06:32:35.139Z,50.40
2022-12-31T06:35:07.758Z,51.00
2022-12-31T06:37:38.243Z,50.10
2022-12-31T06:40:10.419Z,53.30
2022-12-31T06:42:42.503Z,53.30
2022-12-31T06:45:13.917Z,48.60
2022-12-31T06:47:44.420Z,51.70
2022-12-31T06:50:15.218Z,49.20
2022-12-31T06:52:45.756Z,46.30
2022-12-31T06:55:17.644Z,48.40
2022-12-31T06:57:48.516Z,49.40
2022-12-31T07:00:20.961Z,45.30
2022-12-31T07:03:15.836Z,52.20
2022-12-31T07:05:48.696Z,57.00
2022-12-31T07:08:26.982Z,52.10
2022-12-31T07:11:01.114Z,43.00
2022-12-31T07:13:42.888Z,52.80
2022-12-31T07:16:18.612Z,46.30
2022-12-31T07:18:52.117Z,45.50
2022-12-31T07:21:26.436Z,44.10
2022-12-31T07:23:57.544Z,47.50
2022-12-31T07:26:36.857Z,45.20
2022-12-31T07:29:12.099Z,44.60
2022-12-31T07:31:54.033Z,45.00
2022-12-31T07:34:27.778Z,45.10
2022-12-31T07:37:03.506Z,42.40
2022-12-31T07:39:40.366Z,36.80
2022-12-31T07:42:15.419Z,38.10
2022-12-31T07:44:51.718Z,34.40
2022-12-31T07:47:24.158Z,34.60
2022-12-31T07:49:55.485Z,34.50
2022-12-31T07:52:27.666Z,33.70
2022-12-31T07:54:58.277Z,32.60
2022-12-31T07:57:33.266Z,34.30
2022-12-31T08:00:07.703Z,31.50
2022-12-31T08:03:03.524Z,35.00
2022-12-31T08:05:36.344Z,30.40
2022-12-31T08:08:14.230Z,29.10
2022-12-31T08:10:49.012Z,24.20
2022-12-31T08:13:19.852Z,25.90
2022-12-31T08:15:51.624Z,24.20
2022-12-31T08:18:23.092Z,28.90
2022-12-31T08:20:57.910Z,30.20
2022-12-31T08:23:31.644Z,29.00
2022-12-31T08:26:07.397Z,31.20
2022-12-31T08:28:45.418Z,30.40
2022-12-31T08:31:17.967Z,28.00
2022-12-31T08:33:52.772Z,26.20
2022-12-31T08:36:28.443Z,25.00
2022-12-31T08:39:02.632Z,21.80
2022-12-31T08:41:42.265Z,24.60
2022-12-31T08:44:17.912Z,28.60
2022-12-31T08:46:51.101Z,32.50
2022-12-31T08:51:51.569Z,26.30
2022-12-31T08:54:23.208Z,24.00
2022-12-31T08:56:58.733Z,20.10
2022-12-31T08:59:38.491Z,21.80
2022-12-31T09:02:21.819Z,15.70
2022-12-31T09:04:59.509Z,18.10
2022-12-31T09:07:34.027Z,16.80
2022-12-31T09:10:09.069Z,14.70
2022-12-31T09:12:42.872Z,18.10
2022-12-31T09:15:16.530Z,17.90
2022-12-31T09:17:47.901Z,18.30
2022-12-31T09:20:22.465Z,21.70
2022-12-31T09:22:53.990Z,20.80
2022-12-31T09:25:26.230Z,22.70
2022-12-31T09:28:04.484Z,20.90
2022-12-31T09:30:41.482Z,17.60
2022-12-31T09:33:14.038Z,19.50
2022-12-31T09:35:49.314Z,16.10
2022-12-31T09:38:22.290Z,16.70
2022-12-31T09:40:59.660Z,7.10
2022-12-31T09:43:48.634Z,8.40
2022-12-31T09:46:47.704Z,12.00
2022-12-31T09:49:39.124Z,8.30
2022-12-31T09:52:16.347Z,6.00
2022-12-31T09:54:53.506Z,5.60
2022-12-31T09:57:31.483Z,4.20
2022-12-31T10:00:04.290Z,3.50
2022-12-31T10:03:01.774Z,3.60
2022-12-31T10:05:52.289Z,3.80
2022-12-31T10:08:30.669Z,3.80
2022-12-31T10:11:05.020Z,4.80
2022-12-31T10:13:44.873Z,4.80
2022-12-31T10:16:35.267Z,4.70
2022-12-31T10:19:37.882Z,4.90
2022-12-31T10:22:15.530Z,4.30
2022-12-31T10:24:57.242Z,4.20
2022-12-31T10:27:36.883Z,4.40
2022-12-31T10:30:13.260Z,3.40
2022-12-31T10:32:46.073Z,3.90
2022-12-31T10:35:29.180Z,3.90
2022-12-31T10:38:04.658Z,3.50
2022-12-31T10:40:43.545Z,3.30
2022-12-31T10:43:32.377Z,3.20
2022-12-31T10:46:26.269Z,3.00
2022-12-31T10:49:05.379Z,2.50
2022-12-31T10:51:54.159Z,2.80
2022-12-31T10:54:41.688Z,3.10
2022-12-31T10:57:26.249Z,2.80
2022-12-31T11:00:10.513Z,2.30
2022-12-31T11:02:57.697Z,2.40
2022-12-31T11:05:39.694Z,1.90
2022-12-31T11:08:18.454Z,2.60
2022-12-31T11:10:58.108Z,2.60
2022-12-31T11:13:45.619Z,2.40
2022-12-31T11:16:30.030Z,2.50
2022-12-31T11:19:03.308Z,2.30
2022-12-31T11:21:41.829Z,1.90
2022-12-31T11:24:19.266Z,2.20
2022-12-31T11:26:58.402Z,2.70
2022-12-31T11:29:36.799Z,1.90
2022-12-31T11:32:15.526Z,1.80
2022-12-31T11:34:59.397Z,1.90
2022-12-31T11:37:32.666Z,1.90
2022-12-31T11:42:41.393Z,1.70
2022-12-31T11:45:16.612Z,2.50
2022-12-31T11:50:48.848Z,2.20
2022-12-31T11:53:26.411Z,2.00
2022-12-31T11:56:02.373Z,1.70
2022-12-31T11:58:33.134Z,1.90
2022-12-31T12:01:06.783Z,1.80
2022-12-31T12:03:42.615Z,1.80
2022-12-31T12:06:14.891Z,1.80
2022-12-31T12:08:46.179Z,1.70
2022-12-31T12:11:20.186Z,1.50
2022-12-31T12:13:51.310Z,1.70
2022-12-31T12:16:23.098Z,1.80
2022-12-31T12:19:03.639Z,1.90
2022-12-31T12:21:35.180Z,1.50
2022-12-31T12:24:07.566Z,1.80
2022-12-31T12:26:39.128Z,1.90
2022-12-31T12:29:13.537Z,2.40
2022-12-31T12:31:55.249Z,2.20
2022-12-31T12:34:27.252Z,2.00
2022-12-31T12:36:58.436Z,2.20
2022-12-31T12:39:29.909Z,1.90
2022-12-31T12:42:08.504Z,2.40
2022-12-31T12:44:40.367Z,2.20
2022-12-31T12:47:15.470Z,1.90
2022-12-31T12:49:47.738Z,2.10
2022-12-31T12:52:28.247Z,2.40
2022-12-31T12:55:06.614Z,2.30
2022-12-31T12:57:45.426Z,2.10
2022-12-31T13:00:18.974Z,2.10
2022-12-31T13:03:06.036Z,1.80
2022-12-31T13:05:42.954Z,2.40
2022-12-31T13:08:22.085Z,2.60
2022-12-31T13:10:58.427Z,1.80
2022-12-31T13:13:34.983Z,2.20
2022-12-31T13:16:09.690Z,2.30
2022-12-31T13:18:48.324Z,1.80
2022-12-31T13:21:32.522Z,2.40
2022-12-31T13:24:08.164Z,2.50
2022-12-31T13:26:40.917Z,2.20
2022-12-31T13:29:14.883Z,2.30
2022-12-31T13:31:46.931Z,2.50
2022-12-31T13:34:19.895Z,2.40
2022-12-31T13:36:51.996Z,2.90
2022-12-31T13:39:26.001Z,3.60
2022-12-31T13:42:00.523Z,3.00
2022-12-31T13:44:36.261Z,2.70
2022-12-31T13:47:12.882Z,3.00
2022-12-31T13:49:45.440Z,3.20
2022-12-31T13:52:21.506Z,2.80
2022-12-31T13:54:56.913Z,2.80
2022-12-31T13:57:33.526Z,3.30
2022-12-31T14:00:05.637Z,3.00
2022-12-31T14:02:44.516Z,3.50
2022-12-31T14:05:18.322Z,3.30
2022-12-31T14:10:21.057Z,3.10
2022-12-31T14:12:55.111Z,3.20
2022-12-31T14:15:30.775Z,3.50
2022-12-31T14:18:04.945Z,3.30
2022-12-31T14:20:43.235Z,3.30
2022-12-31T14:23:18.037Z,3.80
2022-12-31T14:25:50.637Z,3.20
2022-12-31T14:28:25.473Z,3.40
2022-12-31T14:30:58.148Z,3.70
2022-12-31T14:33:46.508Z,3.10
2022-12-31T14:36:29.245Z,3.00
2022-12-31T14:39:06.821Z,3.10
2022-12-31T14:41:44.724Z,3.70
2022-12-31T14:44:28.969Z,3.40
2022-12-31T14:47:04.842Z,3.40
2022-12-31T14:49:39.960Z,3.90
2022-12-31T14:52:20.797Z,3.40
2022-12-31T14:55:00.096Z,3.40
2022-12-31T14:58:01.575Z,3.40
2022-12-31T15:00:30.608Z,3.90
2022-12-31T15:03:02.991Z,3.70
2022-12-31T15:05:34.529Z,4.20
2022-12-31T15:08:20.823Z,4.10
2022-12-31T15:10:59.136Z,3.40
2022-12-31T15:13:38.259Z,4.40
2022-12-31T15:16:15.344Z,4.00
2022-12-31T15:18:56.879Z,4.10
2022-12-31T15:21:34.145Z,4.10
2022-12-31T15:24:13.464Z,4.00
2022-12-31T15:26:49.566Z,4.20
2022-12-31T15:29:31.158Z,3.80
2022-12-31T15:32:04.098Z,3.40
2022-12-31T15:34:36.048Z,4.10
2022-12-31T15:37:07.497Z,4.20
2022-12-31T15:39:44.663Z,4.30
2022-12-31T15:42:39.247Z,4.10
2022-12-31T15:45:17.328Z,4.20
2022-12-31T15:47:50.163Z,4.60
2022-12-31T15:50:22.750Z,4.40
2022-12-31T15:52:54.294Z,3.80
2022-12-31T15:55:27.205Z,3.90
2022-12-31T16:00:30.731Z,4.40
2022-12-31T16:03:01.467Z,4.30
2022-12-31T16:05:35.450Z,4.50
2022-12-31T16:08:06.388Z,3.60
2022-12-31T16:10:37.320Z,5.00
2022-12-31T16:13:07.827Z,4.50
2022-12-31T16:15:38.945Z,4.40
2022-12-31T16:18:18.943Z,4.90
2022-12-31T16:20:55.192Z,4.80
2022-12-31T16:23:27.736Z,4.60
2022-12-31T16:26:01.269Z,4.70
2022-12-31T16:28:33.026Z,6.00
2022-12-31T16:31:04.942Z,5.40
2022-12-31T16:33:35.584Z,5.70
2022-12-31T16:36:06.803Z,5.10
2022-12-31T16:38:38.506Z,5.10
2022-12-31T16:41:16.212Z,5.00
2022-12-31T16:43:47.489Z,5.20
2022-12-31T16:46:20.627Z,5.20
2022-12-31T16:48:54.555Z,5.50
2022-12-31T16:51:28.863Z,5.20
2022-12-31T16:56:32.290Z,7.40
2022-12-31T16:59:04.769Z,7.20
2022-12-31T17:01:36.891Z,8.00
2022-12-31T17:04:10.281Z,6.50
2022-12-31T17:06:41.392Z,6.70
2022-12-31T17:09:14.879Z,6.90
2022-12-31T17:11:50.514Z,6.40
2022-12-31T17:14:23.284Z,6.80
2022-12-31T17:17:02.809Z,6.60
2022-12-31T17:19:36.087Z,6.60
2022-12-31T17:22:10.130Z,7.50
2022-12-31T17:24:41.168Z,7.60
2022-12-31T17:27:12.210Z,8.20
2022-12-31T17:29:44.435Z,8.00
2022-12-31T17:32:32.036Z,7.70
2022-12-31T17:35:02.634Z,7.80
2022-12-31T17:37:33.267Z,7.20
2022-12-31T17:40:41.074Z,7.90
2022-12-31T17:42:54.635Z,7.70
2022-12-31T17:45:25.196Z,7.10
2022-12-31T17:47:59.947Z,6.90
2022-12-31T17:50:30.470Z,7.70
2022-12-31T17:53:03.767Z,7.70
2022-12-31T17:55:34.271Z,6.80
2022-12-31T17:58:06.190Z,6.60
2022-12-31T18:00:38.123Z,6.30
2022-12-31T18:03:09.213Z,7.60
2022-12-31T18:05:39.740Z,6.50
2022-12-31T18:08:10.675Z,6.00
2022-12-31T18:10:41.980Z,6.40
2022-12-31T18:13:15.868Z,7.00
2022-12-31T18:15:46.636Z,6.80
2022-12-31T18:18:25.193Z,6.70
2022-12-31T18:20:58.938Z,7.00
2022-12-31T18:23:31.685Z,7.00
2022-12-31T18:26:02.263Z,7.70
2022-12-31T18:28:33.422Z,7.90
2022-12-31T18:31:04.428Z,7.70
2022-12-31T18:33:35.980Z,8.60
2022-12-31T18:36:09.562Z,7.70
2022-12-31T18:38:41.603Z,8.80
2022-12-31T18:41:16.985Z,9.40
2022-12-31T18:43:48.189Z,9.10
2022-12-31T18:46:20.850Z,9.40
2022-12-31T18:48:51.841Z,9.70
2022-12-31T18:51:29.357Z,9.60
2022-12-31T18:54:03.366Z,9.00
2022-12-31T18:56:33.983Z,9.80
2022-12-31T18:59:04.925Z,9.30
2022-12-31T19:01:36.602Z,9.20
2022-12-31T19:04:13.177Z,8.60
2022-12-31T19:06:44.955Z,8.10
2022-12-31T19:09:43.493Z,8.70
2022-12-31T19:12:06.803Z,9.70
2022-12-31T19:14:37.583Z,9.10
2022-12-31T19:19:37.429Z,8.30
2022-12-31T19:22:11.026Z,8.30
2022-12-31T19:24:41.744Z,8.90
2022-12-31T19:27:17.113Z,7.60
2022-12-31T19:29:47.613Z,8.10
2022-12-31T19:32:18.900Z,7.90
2022-12-31T19:34:49.387Z,9.10
2022-12-31T19:37:20.628Z,9.20
2022-12-31T19:39:51.265Z,7.90
2022-12-31T19:42:22.609Z,8.10
2022-12-31T19:44:53.597Z,8.90
2022-12-31T19:47:25.095Z,9.10
2022-12-31T19:49:55.544Z,7.80
2022-12-31T19:52:26.467Z,8.70
2022-12-31T19:54:57.106Z,9.00
2022-12-31T19:57:27.930Z,9.50
2022-12-31T19:59:58.564Z,10.30
2022-12-31T20:02:29.839Z,10.20
2022-12-31T20:05:00.552Z,8.70
2022-12-31T20:07:31.716Z,9.90
2022-12-31T20:10:02.307Z,11.60
2022-12-31T20:12:35.649Z,13.90
2022-12-31T20:15:09.829Z,14.50
2022-12-31T20:17:40.967Z,15.40
2022-12-31T20:20:12.012Z,17.40
2022-12-31T20:22:42.953Z,17.30
2022-12-31T20:25:13.881Z,15.40
2022-12-31T20:27:44.925Z,15.20
2022-12-31T20:30:16.728Z,14.90
2022-12-31T20:32:47.927Z,13.10
2022-12-31T20:35:18.596Z,11.10
2022-12-31T20:37:49.496Z,11.30
2022-12-31T20:40:20.427Z,11.20
2022-12-31T20:42:52.406Z,11.20
2022-12-31T20:45:22.920Z,11.30
2022-12-31T20:47:54.265Z,11.60
2022-12-31T20:50:24.908Z,11.80
2022-12-31T20:52:56.045Z,12.00
2022-12-31T20:55:27.458Z,11.60
2022-12-31T20:57:58.328Z,10.90
2022-12-31T21:00:28.883Z,10.60
2022-12-31T21:03:10.456Z,11.00
2022-12-31T21:05:50.210Z,10.80
2022-12-31T21:08:21.946Z,11.00
2022-12-31T21:10:52.681Z,9.80
2022-12-31T21:13:24.564Z,9.80
2022-12-31T21:15:55.364Z,9.20
2022-12-31T21:18:26.491Z,9.80
2022-12-31T21:20:57.164Z,12.00
2022-12-31T21:23:27.940Z,10.80
2022-12-31T21:25:58.619Z,12.40
2022-12-31T21:28:29.755Z,10.30
2022-12-31T21:31:00.493Z,10.10
2022-12-31T21:33:31.649Z,10.90
2022-12-31T21:36:04.755Z,10.40
2022-12-31T21:38:38.294Z,11.00
2022-12-31T21:41:33.305Z,10.80
2022-12-31T21:44:05.076Z,10.00
2022-12-31T21:46:35.656Z,9.30
2022-12-31T21:49:07.002Z,9.50
2022-12-31T21:51:58.167Z,10.20
2022-12-31T21:54:47.023Z,9.60
2022-12-31T21:57:17.508Z,9.40
2022-12-31T22:00:39.821Z,10.30
2022-12-31T22:03:14.825Z,9.40
2022-12-31T22:05:50.664Z,9.80
2022-12-31T22:08:21.679Z,9.00
2022-12-31T22:10:53.241Z,9.10
2022-12-31T22:13:24.437Z,8.90
2022-12-31T22:16:01.760Z,9.40
2022-12-31T22:18:38.633Z,8.80
2022-12-31T22:21:17.837Z,7.30
2022-12-31T22:23:51.110Z,8.40
2022-12-31T22:26:23.721Z,7.90
2022-12-31T22:28:59.082Z,7.00
2022-12-31T22:31:31.333Z,7.30
2022-12-31T22:34:02.278Z,7.20
2022-12-31T22:36:33.236Z,7.20
2022-12-31T22:39:03.696Z,7.10
2022-12-31T22:41:35.253Z,7.30
2022-12-31T22:44:05.997Z,7.30
2022-12-31T22:46:37.378Z,7.00
2022-12-31T22:49:08.071Z,6.90
2022-12-31T22:51:56.549Z,5.70
2022-12-31T22:54:27.970Z,5.40
2022-12-31T22:56:59.214Z,6.00
2022-12-31T22:59:29.742Z,5.50
2022-12-31T23:02:01.096Z,6.00
2022-12-31T23:04:31.782Z,5.70
2022-12-31T23:07:02.609Z,7.90
2022-12-31T23:09:51.004Z,11.00
2022-12-31T23:12:22.093Z,13.20
2022-12-31T23:15:10.319Z,20.90
2022-12-31T23:17:59.041Z,15.60
2022-12-31T23:20:47.512Z,11.00
2022-12-31T23:23:18.844Z,9.70
2022-12-31T23:25:50.615Z,11.60
2022-12-31T23:28:25.081Z,10.10
2022-12-31T23:30:55.753Z,10.80
2022-12-31T23:33:27.303Z,10.70
2022-12-31T23:36:04.795Z,10.20
2022-12-31T23:38:35.931Z,9.90
2022-12-31T23:41:13.822Z,10.90
2022-12-31T23:43:45.612Z,10.30
2022-12-31T23:46:17.199Z,10.60
2022-12-31T23:48:48.188Z,11.10
2022-12-31T23:51:18.713Z,10.20
2022-12-31T23:53:50.059Z,9.10
2022-12-31T23:56:23.734Z,10.70
2022-12-31T23:58:56.645Z,10.30
